sensor_id;sensor_type;location;lat;lon;timestamp;P1;durP1;ratioP1;P2;durP2;ratioP2
56718;SDS011;42597;40.636;0.278;2023-04-15T00:00:14;10.10;;;2.55;;
56718;SDS011;42597;40.636;0.278;2023-04-15T00:02:41;7.63;;;2.33;;
56718;SDS011;42597;40.636;0.278;2023-04-15T00:05:06;4.40;;;1.45;;
56718;SDS011;42597;40.636;0.278;2023-04-15T00:07:33;12.52;;;4.38;;
56718;SDS011;42597;40.636;0.278;2023-04-15T00:10:00;11.15;;;2.70;;
56718;SDS011;42597;40.636;0.278;2023-04-15T00:12:26;5.65;;;2.30;;
56718;SDS011;42597;40.636;0.278;2023-04-15T00:14:52;8.80;;;2.60;;
56718;SDS011;42597;40.636;0.278;2023-04-15T00:17:18;8.77;;;2.30;;
56718;SDS011;42597;40.636;0.278;2023-04-15T00:19:45;11.90;;;2.25;;
56718;SDS011;42597;40.636;0.278;2023-04-15T00:22:11;7.25;;;2.28;;
56718;SDS011;42597;40.636;0.278;2023-04-15T00:24:37;8.05;;;2.55;;
56718;SDS011;42597;40.636;0.278;2023-04-15T00:27:03;4.65;;;2.15;;
56718;SDS011;42597;40.636;0.278;2023-04-15T00:29:30;8.10;;;3.88;;
56718;SDS011;42597;40.636;0.278;2023-04-15T00:31:55;10.02;;;2.90;;
56718;SDS011;42597;40.636;0.278;2023-04-15T00:34:21;9.75;;;2.53;;
56718;SDS011;42597;40.636;0.278;2023-04-15T00:36:48;5.00;;;2.08;;
56718;SDS011;42597;40.636;0.278;2023-04-15T00:39:15;8.27;;;2.65;;
56718;SDS011;42597;40.636;0.278;2023-04-15T00:41:41;10.95;;;2.30;;
56718;SDS011;42597;40.636;0.278;2023-04-15T00:44:08;9.93;;;2.70;;
56718;SDS011;42597;40.636;0.278;2023-04-15T00:46:35;4.20;;;1.92;;
56718;SDS011;42597;40.636;0.278;2023-04-15T00:49:05;8.55;;;3.05;;
56718;SDS011;42597;40.636;0.278;2023-04-15T00:54:01;12.00;;;2.63;;
56718;SDS011;42597;40.636;0.278;2023-04-15T00:56:28;8.52;;;2.85;;
56718;SDS011;42597;40.636;0.278;2023-04-15T00:58:55;8.63;;;2.47;;
56718;SDS011;42597;40.636;0.278;2023-04-15T01:01:21;5.55;;;2.17;;
56718;SDS011;42597;40.636;0.278;2023-04-15T01:03:49;8.63;;;2.70;;
56718;SDS011;42597;40.636;0.278;2023-04-15T01:06:16;9.80;;;3.15;;
56718;SDS011;42597;40.636;0.278;2023-04-15T01:08:42;9.07;;;2.20;;
56718;SDS011;42597;40.636;0.278;2023-04-15T01:11:09;11.57;;;2.92;;
56718;SDS011;42597;40.636;0.278;2023-04-15T01:13:36;7.13;;;2.22;;
56718;SDS011;42597;40.636;0.278;2023-04-15T01:16:02;8.32;;;2.60;;
56718;SDS011;42597;40.636;0.278;2023-04-15T01:18:29;6.03;;;1.92;;
56718;SDS011;42597;40.636;0.278;2023-04-15T01:20:55;3.97;;;1.55;;
56718;SDS011;42597;40.636;0.278;2023-04-15T01:23:21;10.63;;;3.15;;
56718;SDS011;42597;40.636;0.278;2023-04-15T01:25:50;6.57;;;2.88;;
56718;SDS011;42597;40.636;0.278;2023-04-15T01:28:17;8.68;;;2.67;;
56718;SDS011;42597;40.636;0.278;2023-04-15T01:30:44;7.63;;;3.50;;
56718;SDS011;42597;40.636;0.278;2023-04-15T01:33:10;7.97;;;2.95;;
56718;SDS011;42597;40.636;0.278;2023-04-15T01:35:36;6.40;;;2.50;;
56718;SDS011;42597;40.636;0.278;2023-04-15T01:38:04;10.38;;;2.00;;
56718;SDS011;42597;40.636;0.278;2023-04-15T01:40:31;11.30;;;3.72;;
56718;SDS011;42597;40.636;0.278;2023-04-15T01:42:58;9.80;;;2.80;;
56718;SDS011;42597;40.636;0.278;2023-04-15T01:45:24;5.95;;;1.90;;
56718;SDS011;42597;40.636;0.278;2023-04-15T01:47:50;7.43;;;2.50;;
56718;SDS011;42597;40.636;0.278;2023-04-15T01:50:16;9.50;;;2.67;;
56718;SDS011;42597;40.636;0.278;2023-04-15T01:52:42;6.95;;;2.33;;
56718;SDS011;42597;40.636;0.278;2023-04-15T01:55:08;7.20;;;2.30;;
56718;SDS011;42597;40.636;0.278;2023-04-15T01:57:34;11.13;;;2.67;;
56718;SDS011;42597;40.636;0.278;2023-04-15T01:59:59;5.88;;;2.10;;
56718;SDS011;42597;40.636;0.278;2023-04-15T02:02:25;6.82;;;2.38;;
56718;SDS011;42597;40.636;0.278;2023-04-15T02:04:50;9.25;;;2.50;;
56718;SDS011;42597;40.636;0.278;2023-04-15T02:07:17;6.35;;;2.90;;
56718;SDS011;42597;40.636;0.278;2023-04-15T02:09:43;11.25;;;2.42;;
56718;SDS011;42597;40.636;0.278;2023-04-15T02:12:10;8.13;;;2.50;;
56718;SDS011;42597;40.636;0.278;2023-04-15T02:14:36;10.52;;;3.58;;
56718;SDS011;42597;40.636;0.278;2023-04-15T02:17:02;6.88;;;2.92;;
56718;SDS011;42597;40.636;0.278;2023-04-15T02:19:31;9.50;;;3.40;;
56718;SDS011;42597;40.636;0.278;2023-04-15T02:21:58;12.38;;;3.60;;
56718;SDS011;42597;40.636;0.278;2023-04-15T02:24:24;11.25;;;2.85;;
56718;SDS011;42597;40.636;0.278;2023-04-15T02:26:50;5.03;;;2.33;;
56718;SDS011;42597;40.636;0.278;2023-04-15T02:29:15;11.45;;;3.60;;
56718;SDS011;42597;40.636;0.278;2023-04-15T02:31:41;14.73;;;3.17;;
56718;SDS011;42597;40.636;0.278;2023-04-15T02:34:07;10.77;;;2.95;;
56718;SDS011;42597;40.636;0.278;2023-04-15T02:36:33;8.82;;;3.10;;
56718;SDS011;42597;40.636;0.278;2023-04-15T02:38:59;6.43;;;2.35;;
56718;SDS011;42597;40.636;0.278;2023-04-15T02:41:25;11.35;;;2.53;;
56718;SDS011;42597;40.636;0.278;2023-04-15T02:43:52;8.18;;;3.03;;
56718;SDS011;42597;40.636;0.278;2023-04-15T02:46:18;10.02;;;3.58;;
56718;SDS011;42597;40.636;0.278;2023-04-15T02:48:44;7.82;;;2.83;;
56718;SDS011;42597;40.636;0.278;2023-04-15T02:51:10;4.47;;;2.10;;
56718;SDS011;42597;40.636;0.278;2023-04-15T02:53:39;12.02;;;3.28;;
56718;SDS011;42597;40.636;0.278;2023-04-15T02:56:05;7.10;;;2.85;;
56718;SDS011;42597;40.636;0.278;2023-04-15T02:58:32;8.90;;;3.00;;
56718;SDS011;42597;40.636;0.278;2023-04-15T03:00:59;6.05;;;2.40;;
56718;SDS011;42597;40.636;0.278;2023-04-15T03:03:24;15.45;;;3.10;;
56718;SDS011;42597;40.636;0.278;2023-04-15T03:05:52;9.20;;;3.60;;
56718;SDS011;42597;40.636;0.278;2023-04-15T03:08:17;10.18;;;3.47;;
56718;SDS011;42597;40.636;0.278;2023-04-15T03:10:43;7.10;;;2.45;;
56718;SDS011;42597;40.636;0.278;2023-04-15T03:13:08;11.35;;;3.03;;
56718;SDS011;42597;40.636;0.278;2023-04-15T03:15:34;11.38;;;3.00;;
56718;SDS011;42597;40.636;0.278;2023-04-15T03:18:00;10.77;;;2.97;;
56718;SDS011;42597;40.636;0.278;2023-04-15T03:20:25;10.05;;;2.63;;
56718;SDS011;42597;40.636;0.278;2023-04-15T03:22:51;13.82;;;3.38;;
56718;SDS011;42597;40.636;0.278;2023-04-15T03:25:17;13.38;;;3.22;;
56718;SDS011;42597;40.636;0.278;2023-04-15T03:27:42;8.35;;;2.67;;
56718;SDS011;42597;40.636;0.278;2023-04-15T03:30:08;9.95;;;3.05;;
56718;SDS011;42597;40.636;0.278;2023-04-15T03:32:34;8.13;;;3.08;;
56718;SDS011;42597;40.636;0.278;2023-04-15T03:34:59;7.75;;;2.72;;
56718;SDS011;42597;40.636;0.278;2023-04-15T03:37:25;10.27;;;2.65;;
56718;SDS011;42597;40.636;0.278;2023-04-15T03:39:51;8.43;;;3.13;;
56718;SDS011;42597;40.636;0.278;2023-04-15T03:42:17;7.93;;;2.35;;
56718;SDS011;42597;40.636;0.278;2023-04-15T03:44:42;12.18;;;3.20;;
56718;SDS011;42597;40.636;0.278;2023-04-15T03:47:08;13.80;;;3.45;;
56718;SDS011;42597;40.636;0.278;2023-04-15T03:49:33;8.90;;;3.28;;
56718;SDS011;42597;40.636;0.278;2023-04-15T03:52:00;6.43;;;1.98;;
56718;SDS011;42597;40.636;0.278;2023-04-15T03:54:25;7.68;;;2.20;;
56718;SDS011;42597;40.636;0.278;2023-04-15T03:56:51;15.00;;;4.00;;
56718;SDS011;42597;40.636;0.278;2023-04-15T03:59:16;11.18;;;3.15;;
56718;SDS011;42597;40.636;0.278;2023-04-15T04:01:42;7.25;;;2.58;;
56718;SDS011;42597;40.636;0.278;2023-04-15T04:04:08;10.73;;;2.70;;
56718;SDS011;42597;40.636;0.278;2023-04-15T04:06:33;11.32;;;3.20;;
56718;SDS011;42597;40.636;0.278;2023-04-15T04:09:00;11.45;;;3.03;;
56718;SDS011;42597;40.636;0.278;2023-04-15T04:11:26;7.80;;;3.40;;
56718;SDS011;42597;40.636;0.278;2023-04-15T04:13:52;11.68;;;3.20;;
56718;SDS011;42597;40.636;0.278;2023-04-15T04:16:18;9.25;;;2.42;;
56718;SDS011;42597;40.636;0.278;2023-04-15T04:18:44;12.35;;;2.90;;
56718;SDS011;42597;40.636;0.278;2023-04-15T04:21:10;7.80;;;3.10;;
56718;SDS011;42597;40.636;0.278;2023-04-15T04:23:36;13.25;;;3.42;;
56718;SDS011;42597;40.636;0.278;2023-04-15T04:26:02;5.72;;;2.55;;
56718;SDS011;42597;40.636;0.278;2023-04-15T04:28:27;7.45;;;3.10;;
56718;SDS011;42597;40.636;0.278;2023-04-15T04:30:53;13.40;;;3.03;;
56718;SDS011;42597;40.636;0.278;2023-04-15T04:33:20;12.60;;;2.85;;
56718;SDS011;42597;40.636;0.278;2023-04-15T04:35:46;6.20;;;1.77;;
56718;SDS011;42597;40.636;0.278;2023-04-15T04:38:11;7.70;;;3.05;;
56718;SDS011;42597;40.636;0.278;2023-04-15T04:40:37;9.50;;;3.00;;
56718;SDS011;42597;40.636;0.278;2023-04-15T04:43:03;9.43;;;3.20;;
56718;SDS011;42597;40.636;0.278;2023-04-15T04:45:29;10.70;;;3.17;;
56718;SDS011;42597;40.636;0.278;2023-04-15T04:47:55;11.45;;;3.08;;
56718;SDS011;42597;40.636;0.278;2023-04-15T04:50:21;7.70;;;2.40;;
56718;SDS011;42597;40.636;0.278;2023-04-15T04:52:47;11.45;;;2.72;;
56718;SDS011;42597;40.636;0.278;2023-04-15T04:55:12;7.18;;;2.58;;
56718;SDS011;42597;40.636;0.278;2023-04-15T04:57:38;9.13;;;2.63;;
56718;SDS011;42597;40.636;0.278;2023-04-15T05:00:05;8.50;;;2.85;;
56718;SDS011;42597;40.636;0.278;2023-04-15T05:02:32;10.87;;;2.73;;
56718;SDS011;42597;40.636;0.278;2023-04-15T05:04:58;12.05;;;3.13;;
56718;SDS011;42597;40.636;0.278;2023-04-15T05:07:24;10.10;;;3.47;;
56718;SDS011;42597;40.636;0.278;2023-04-15T05:09:49;8.65;;;2.80;;
56718;SDS011;42597;40.636;0.278;2023-04-15T05:12:15;6.72;;;2.75;;
56718;SDS011;42597;40.636;0.278;2023-04-15T05:14:42;8.77;;;2.83;;
56718;SDS011;42597;40.636;0.278;2023-04-15T05:17:08;8.07;;;2.30;;
56718;SDS011;42597;40.636;0.278;2023-04-15T05:19:35;12.13;;;3.60;;
56718;SDS011;42597;40.636;0.278;2023-04-15T05:22:01;7.75;;;2.42;;
56718;SDS011;42597;40.636;0.278;2023-04-15T05:24:27;5.15;;;2.40;;
56718;SDS011;42597;40.636;0.278;2023-04-15T05:26:53;9.00;;;2.38;;
56718;SDS011;42597;40.636;0.278;2023-04-15T05:29:19;9.10;;;2.67;;
56718;SDS011;42597;40.636;0.278;2023-04-15T05:31:44;11.15;;;2.80;;
56718;SDS011;42597;40.636;0.278;2023-04-15T05:34:10;6.45;;;2.15;;
56718;SDS011;42597;40.636;0.278;2023-04-15T05:36:36;6.72;;;1.95;;
56718;SDS011;42597;40.636;0.278;2023-04-15T05:39:02;9.23;;;2.53;;
56718;SDS011;42597;40.636;0.278;2023-04-15T05:41:28;11.00;;;2.67;;
56718;SDS011;42597;40.636;0.278;2023-04-15T05:43:54;5.72;;;1.98;;
56718;SDS011;42597;40.636;0.278;2023-04-15T05:46:20;6.45;;;3.47;;
56718;SDS011;42597;40.636;0.278;2023-04-15T05:48:46;3.20;;;1.65;;
56718;SDS011;42597;40.636;0.278;2023-04-15T05:51:12;5.75;;;1.83;;
56718;SDS011;42597;40.636;0.278;2023-04-15T05:53:38;11.52;;;2.65;;
56718;SDS011;42597;40.636;0.278;2023-04-15T05:56:05;6.20;;;1.98;;
56718;SDS011;42597;40.636;0.278;2023-04-15T05:58:31;8.27;;;2.53;;
56718;SDS011;42597;40.636;0.278;2023-04-15T06:00:57;6.53;;;1.90;;
56718;SDS011;42597;40.636;0.278;2023-04-15T06:03:23;11.07;;;2.47;;
56718;SDS011;42597;40.636;0.278;2023-04-15T06:05:49;8.30;;;1.63;;
56718;SDS011;42597;40.636;0.278;2023-04-15T06:08:15;6.45;;;2.60;;
56718;SDS011;42597;40.636;0.278;2023-04-15T06:10:41;8.20;;;2.40;;
56718;SDS011;42597;40.636;0.278;2023-04-15T06:13:07;7.07;;;2.47;;
56718;SDS011;42597;40.636;0.278;2023-04-15T06:15:32;5.68;;;2.63;;
56718;SDS011;42597;40.636;0.278;2023-04-15T06:17:58;7.85;;;2.35;;
56718;SDS011;42597;40.636;0.278;2023-04-15T06:20:24;7.35;;;2.55;;
56718;SDS011;42597;40.636;0.278;2023-04-15T06:22:50;5.68;;;1.90;;
56718;SDS011;42597;40.636;0.278;2023-04-15T06:25:16;4.95;;;1.80;;
56718;SDS011;42597;40.636;0.278;2023-04-15T06:27:42;6.07;;;1.98;;
56718;SDS011;42597;40.636;0.278;2023-04-15T06:30:08;10.18;;;2.42;;
56718;SDS011;42597;40.636;0.278;2023-04-15T06:32:34;4.68;;;2.25;;
56718;SDS011;42597;40.636;0.278;2023-04-15T06:35:00;4.82;;;1.42;;
56718;SDS011;42597;40.636;0.278;2023-04-15T06:37:26;5.55;;;2.22;;
56718;SDS011;42597;40.636;0.278;2023-04-15T06:39:52;5.85;;;1.80;;
56718;SDS011;42597;40.636;0.278;2023-04-15T06:42:18;11.05;;;2.60;;
56718;SDS011;42597;40.636;0.278;2023-04-15T06:44:44;8.10;;;2.97;;
56718;SDS011;42597;40.636;0.278;2023-04-15T06:47:10;6.30;;;1.85;;
56718;SDS011;42597;40.636;0.278;2023-04-15T06:49:38;7.85;;;2.13;;
56718;SDS011;42597;40.636;0.278;2023-04-15T06:52:05;8.95;;;2.30;;
56718;SDS011;42597;40.636;0.278;2023-04-15T06:54:31;7.95;;;2.40;;
56718;SDS011;42597;40.636;0.278;2023-04-15T06:56:57;8.80;;;2.45;;
56718;SDS011;42597;40.636;0.278;2023-04-15T06:59:22;7.80;;;2.53;;
56718;SDS011;42597;40.636;0.278;2023-04-15T07:01:48;6.97;;;2.63;;
56718;SDS011;42597;40.636;0.278;2023-04-15T07:04:14;7.93;;;2.05;;
56718;SDS011;42597;40.636;0.278;2023-04-15T07:06:40;10.63;;;2.53;;
56718;SDS011;42597;40.636;0.278;2023-04-15T07:09:06;7.25;;;1.73;;
56718;SDS011;42597;40.636;0.278;2023-04-15T07:11:32;5.05;;;1.38;;
56718;SDS011;42597;40.636;0.278;2023-04-15T07:13:58;8.05;;;2.80;;
56718;SDS011;42597;40.636;0.278;2023-04-15T07:16:24;4.07;;;1.52;;
56718;SDS011;42597;40.636;0.278;2023-04-15T07:18:50;9.07;;;2.42;;
56718;SDS011;42597;40.636;0.278;2023-04-15T07:21:16;6.20;;;2.15;;
56718;SDS011;42597;40.636;0.278;2023-04-15T07:23:42;8.40;;;1.85;;
56718;SDS011;42597;40.636;0.278;2023-04-15T07:26:08;6.97;;;2.35;;
56718;SDS011;42597;40.636;0.278;2023-04-15T07:28:35;9.82;;;2.00;;
56718;SDS011;42597;40.636;0.278;2023-04-15T07:31:01;4.65;;;1.25;;
56718;SDS011;42597;40.636;0.278;2023-04-15T07:33:26;5.82;;;1.27;;
56718;SDS011;42597;40.636;0.278;2023-04-15T07:35:52;9.15;;;2.67;;
56718;SDS011;42597;40.636;0.278;2023-04-15T07:38:18;5.72;;;1.33;;
56718;SDS011;42597;40.636;0.278;2023-04-15T07:40:43;5.82;;;2.13;;
56718;SDS011;42597;40.636;0.278;2023-04-15T07:43:10;6.53;;;1.58;;
56718;SDS011;42597;40.636;0.278;2023-04-15T07:45:37;4.55;;;1.58;;
56718;SDS011;42597;40.636;0.278;2023-04-15T07:48:03;8.00;;;1.90;;
56718;SDS011;42597;40.636;0.278;2023-04-15T07:50:30;9.30;;;2.08;;
56718;SDS011;42597;40.636;0.278;2023-04-15T07:52:56;4.70;;;2.03;;
56718;SDS011;42597;40.636;0.278;2023-04-15T07:55:22;7.70;;;2.85;;
56718;SDS011;42597;40.636;0.278;2023-04-15T07:57:48;7.85;;;2.70;;
56718;SDS011;42597;40.636;0.278;2023-04-15T08:00:15;7.78;;;2.28;;
56718;SDS011;42597;40.636;0.278;2023-04-15T08:02:41;5.82;;;1.70;;
56718;SDS011;42597;40.636;0.278;2023-04-15T08:05:07;4.03;;;2.05;;
56718;SDS011;42597;40.636;0.278;2023-04-15T08:07:35;5.57;;;1.83;;
56718;SDS011;42597;40.636;0.278;2023-04-15T08:10:02;8.35;;;1.90;;
56718;SDS011;42597;40.636;0.278;2023-04-15T08:12:27;7.72;;;1.50;;
56718;SDS011;42597;40.636;0.278;2023-04-15T08:14:54;7.80;;;1.73;;
56718;SDS011;42597;40.636;0.278;2023-04-15T08:17:21;5.25;;;1.75;;
56718;SDS011;42597;40.636;0.278;2023-04-15T08:19:47;9.93;;;2.03;;
56718;SDS011;42597;40.636;0.278;2023-04-15T08:22:13;5.75;;;1.90;;
56718;SDS011;42597;40.636;0.278;2023-04-15T08:24:39;4.03;;;1.58;;
56718;SDS011;42597;40.636;0.278;2023-04-15T08:27:04;6.93;;;1.80;;
56718;SDS011;42597;40.636;0.278;2023-04-15T08:29:32;7.68;;;2.55;;
56718;SDS011;42597;40.636;0.278;2023-04-15T08:31:58;9.85;;;2.28;;
56718;SDS011;42597;40.636;0.278;2023-04-15T08:34:25;9.55;;;2.35;;
56718;SDS011;42597;40.636;0.278;2023-04-15T08:36:51;4.85;;;1.55;;
56718;SDS011;42597;40.636;0.278;2023-04-15T08:39:17;7.22;;;2.38;;
56718;SDS011;42597;40.636;0.278;2023-04-15T08:41:47;5.47;;;2.10;;
56718;SDS011;42597;40.636;0.278;2023-04-15T08:44:17;6.82;;;2.10;;
56718;SDS011;42597;40.636;0.278;2023-04-15T08:46:44;7.00;;;2.33;;
56718;SDS011;42597;40.636;0.278;2023-04-15T08:49:10;8.05;;;2.35;;
56718;SDS011;42597;40.636;0.278;2023-04-15T08:51:40;7.05;;;2.22;;
56718;SDS011;42597;40.636;0.278;2023-04-15T08:56:35;5.53;;;1.70;;
56718;SDS011;42597;40.636;0.278;2023-04-15T08:59:01;9.18;;;2.72;;
56718;SDS011;42597;40.636;0.278;2023-04-15T09:01:28;10.38;;;2.20;;
56718;SDS011;42597;40.636;0.278;2023-04-15T09:03:54;6.05;;;1.50;;
56718;SDS011;42597;40.636;0.278;2023-04-15T09:06:21;7.38;;;2.00;;
56718;SDS011;42597;40.636;0.278;2023-04-15T09:08:48;3.97;;;1.90;;
56718;SDS011;42597;40.636;0.278;2023-04-15T09:11:14;4.78;;;1.58;;
56718;SDS011;42597;40.636;0.278;2023-04-15T09:13:42;4.95;;;1.63;;
56718;SDS011;42597;40.636;0.278;2023-04-15T09:16:08;6.18;;;1.73;;
56718;SDS011;42597;40.636;0.278;2023-04-15T09:18:34;6.68;;;2.05;;
56718;SDS011;42597;40.636;0.278;2023-04-15T09:21:04;6.75;;;2.25;;
56718;SDS011;42597;40.636;0.278;2023-04-15T09:23:35;5.82;;;1.67;;
56718;SDS011;42597;40.636;0.278;2023-04-15T09:26:03;5.47;;;1.60;;
56718;SDS011;42597;40.636;0.278;2023-04-15T09:28:30;6.07;;;2.47;;
56718;SDS011;42597;40.636;0.278;2023-04-15T09:30:56;5.40;;;1.33;;
56718;SDS011;42597;40.636;0.278;2023-04-15T09:33:23;5.10;;;1.95;;
56718;SDS011;42597;40.636;0.278;2023-04-15T09:36:03;5.78;;;1.88;;
56718;SDS011;42597;40.636;0.278;2023-04-15T09:38:30;10.82;;;2.03;;
56718;SDS011;42597;40.636;0.278;2023-04-15T09:40:57;6.25;;;2.35;;
56718;SDS011;42597;40.636;0.278;2023-04-15T09:43:41;9.23;;;2.33;;
56718;SDS011;42597;40.636;0.278;2023-04-15T09:46:07;7.50;;;1.65;;
56718;SDS011;42597;40.636;0.278;2023-04-15T09:48:32;10.48;;;2.40;;
56718;SDS011;42597;40.636;0.278;2023-04-15T09:50:59;4.20;;;2.42;;
56718;SDS011;42597;40.636;0.278;2023-04-15T09:53:26;9.40;;;3.83;;
56718;SDS011;42597;40.636;0.278;2023-04-15T09:55:56;3.97;;;1.65;;
56718;SDS011;42597;40.636;0.278;2023-04-15T09:58:23;8.65;;;1.95;;
56718;SDS011;42597;40.636;0.278;2023-04-15T10:00:54;6.90;;;1.92;;
56718;SDS011;42597;40.636;0.278;2023-04-15T10:03:22;12.23;;;2.10;;
56718;SDS011;42597;40.636;0.278;2023-04-15T10:05:50;8.85;;;1.92;;
56718;SDS011;42597;40.636;0.278;2023-04-15T10:08:18;5.13;;;1.45;;
56718;SDS011;42597;40.636;0.278;2023-04-15T10:10:46;6.75;;;2.13;;
56718;SDS011;42597;40.636;0.278;2023-04-15T10:13:19;8.48;;;2.47;;
56718;SDS011;42597;40.636;0.278;2023-04-15T10:15:59;7.38;;;1.75;;
56718;SDS011;42597;40.636;0.278;2023-04-15T10:18:31;4.95;;;1.98;;
56718;SDS011;42597;40.636;0.278;2023-04-15T10:21:00;4.57;;;1.65;;
56718;SDS011;42597;40.636;0.278;2023-04-15T10:23:25;11.13;;;2.35;;
56718;SDS011;42597;40.636;0.278;2023-04-15T10:25:52;10.23;;;2.47;;
56718;SDS011;42597;40.636;0.278;2023-04-15T10:28:19;6.00;;;1.70;;
56718;SDS011;42597;40.636;0.278;2023-04-15T10:30:47;9.40;;;1.95;;
56718;SDS011;42597;40.636;0.278;2023-04-15T10:33:13;9.93;;;2.30;;
56718;SDS011;42597;40.636;0.278;2023-04-15T10:35:44;12.15;;;1.90;;
56718;SDS011;42597;40.636;0.278;2023-04-15T10:41:14;4.57;;;1.60;;
56718;SDS011;42597;40.636;0.278;2023-04-15T10:46:38;7.40;;;1.98;;
56718;SDS011;42597;40.636;0.278;2023-04-15T10:51:40;5.63;;;1.67;;
56718;SDS011;42597;40.636;0.278;2023-04-15T10:54:52;2.70;;;1.02;;
56718;SDS011;42597;40.636;0.278;2023-04-15T10:57:15;6.13;;;2.65;;
56718;SDS011;42597;40.636;0.278;2023-04-15T11:08:07;7.70;;;1.67;;
56718;SDS011;42597;40.636;0.278;2023-04-15T11:13:01;7.60;;;1.55;;
56718;SDS011;42597;40.636;0.278;2023-04-15T11:18:12;6.88;;;2.53;;
56718;SDS011;42597;40.636;0.278;2023-04-15T11:20:49;3.70;;;1.45;;
56718;SDS011;42597;40.636;0.278;2023-04-15T11:23:36;4.93;;;1.52;;
56718;SDS011;42597;40.636;0.278;2023-04-15T11:26:05;4.32;;;1.75;;
56718;SDS011;42597;40.636;0.278;2023-04-15T11:28:36;3.42;;;1.25;;
56718;SDS011;42597;40.636;0.278;2023-04-15T11:33:34;3.97;;;1.80;;
56718;SDS011;42597;40.636;0.278;2023-04-15T11:36:01;5.60;;;1.80;;
56718;SDS011;42597;40.636;0.278;2023-04-15T11:38:28;3.40;;;1.52;;
56718;SDS011;42597;40.636;0.278;2023-04-15T11:40:54;3.15;;;1.60;;
56718;SDS011;42597;40.636;0.278;2023-04-15T11:43:20;3.03;;;1.10;;
56718;SDS011;42597;40.636;0.278;2023-04-15T11:45:48;5.53;;;1.90;;
56718;SDS011;42597;40.636;0.278;2023-04-15T11:48:19;7.60;;;1.92;;
56718;SDS011;42597;40.636;0.278;2023-04-15T11:50:51;7.30;;;2.45;;
56718;SDS011;42597;40.636;0.278;2023-04-15T11:53:18;3.63;;;1.45;;
56718;SDS011;42597;40.636;0.278;2023-04-15T11:55:45;6.20;;;1.48;;
56718;SDS011;42597;40.636;0.278;2023-04-15T11:58:13;4.32;;;2.13;;
56718;SDS011;42597;40.636;0.278;2023-04-15T12:00:42;7.40;;;2.38;;
56718;SDS011;42597;40.636;0.278;2023-04-15T12:08:52;4.82;;;1.52;;
56718;SDS011;42597;40.636;0.278;2023-04-15T12:11:38;3.45;;;0.88;;
56718;SDS011;42597;40.636;0.278;2023-04-15T12:16:44;7.13;;;2.28;;
56718;SDS011;42597;40.636;0.278;2023-04-15T12:19:12;4.32;;;1.70;;
56718;SDS011;42597;40.636;0.278;2023-04-15T12:21:39;7.97;;;1.83;;
56718;SDS011;42597;40.636;0.278;2023-04-15T12:24:09;3.83;;;1.15;;
56718;SDS011;42597;40.636;0.278;2023-04-15T12:26:45;9.68;;;2.17;;
56718;SDS011;42597;40.636;0.278;2023-04-15T12:29:13;6.68;;;1.52;;
56718;SDS011;42597;40.636;0.278;2023-04-15T12:34:33;3.80;;;1.50;;
56718;SDS011;42597;40.636;0.278;2023-04-15T12:37:03;3.17;;;1.63;;
56718;SDS011;42597;40.636;0.278;2023-04-15T12:39:31;7.82;;;2.08;;
56718;SDS011;42597;40.636;0.278;2023-04-15T12:41:59;3.15;;;1.10;;
56718;SDS011;42597;40.636;0.278;2023-04-15T12:44:25;4.90;;;1.67;;
56718;SDS011;42597;40.636;0.278;2023-04-15T12:46:52;5.68;;;1.98;;
56718;SDS011;42597;40.636;0.278;2023-04-15T12:49:19;6.18;;;1.98;;
56718;SDS011;42597;40.636;0.278;2023-04-15T12:51:49;4.07;;;1.50;;
56718;SDS011;42597;40.636;0.278;2023-04-15T12:54:16;4.78;;;1.40;;
56718;SDS011;42597;40.636;0.278;2023-04-15T12:56:43;5.22;;;1.58;;
56718;SDS011;42597;40.636;0.278;2023-04-15T12:59:10;5.10;;;1.48;;
56718;SDS011;42597;40.636;0.278;2023-04-15T13:01:37;7.10;;;1.70;;
56718;SDS011;42597;40.636;0.278;2023-04-15T13:04:03;4.25;;;1.27;;
56718;SDS011;42597;40.636;0.278;2023-04-15T13:06:29;7.65;;;1.27;;
56718;SDS011;42597;40.636;0.278;2023-04-15T13:08:56;4.43;;;1.55;;
56718;SDS011;42597;40.636;0.278;2023-04-15T13:11:23;2.42;;;0.70;;
56718;SDS011;42597;40.636;0.278;2023-04-15T13:13:49;3.20;;;1.05;;
56718;SDS011;42597;40.636;0.278;2023-04-15T13:16:16;5.00;;;1.15;;
56718;SDS011;42597;40.636;0.278;2023-04-15T13:18:43;8.18;;;1.08;;
56718;SDS011;42597;40.636;0.278;2023-04-15T13:21:11;7.43;;;1.25;;
56718;SDS011;42597;40.636;0.278;2023-04-15T13:23:37;2.45;;;0.88;;
56718;SDS011;42597;40.636;0.278;2023-04-15T13:26:02;1.55;;;0.75;;
56718;SDS011;42597;40.636;0.278;2023-04-15T13:28:28;5.28;;;1.50;;
56718;SDS011;42597;40.636;0.278;2023-04-15T13:30:54;4.85;;;1.25;;
56718;SDS011;42597;40.636;0.278;2023-04-15T13:33:20;6.70;;;1.42;;
56718;SDS011;42597;40.636;0.278;2023-04-15T13:35:46;8.05;;;1.30;;
56718;SDS011;42597;40.636;0.278;2023-04-15T13:38:12;4.45;;;0.77;;
56718;SDS011;42597;40.636;0.278;2023-04-15T13:40:37;2.80;;;1.00;;
56718;SDS011;42597;40.636;0.278;2023-04-15T13:43:03;8.70;;;0.75;;
56718;SDS011;42597;40.636;0.278;2023-04-15T13:45:29;5.20;;;1.80;;
56718;SDS011;42597;40.636;0.278;2023-04-15T13:47:55;2.38;;;1.30;;
56718;SDS011;42597;40.636;0.278;2023-04-15T13:50:21;3.90;;;1.13;;
56718;SDS011;42597;40.636;0.278;2023-04-15T13:52:47;4.95;;;1.35;;
56718;SDS011;42597;40.636;0.278;2023-04-15T13:55:13;2.53;;;0.85;;
56718;SDS011;42597;40.636;0.278;2023-04-15T13:57:39;1.33;;;0.70;;
56718;SDS011;42597;40.636;0.278;2023-04-15T14:00:05;3.42;;;1.17;;
56718;SDS011;42597;40.636;0.278;2023-04-15T14:02:31;6.15;;;1.95;;
56718;SDS011;42597;40.636;0.278;2023-04-15T14:04:57;4.18;;;1.20;;
56718;SDS011;42597;40.636;0.278;2023-04-15T14:07:23;1.75;;;0.82;;
56718;SDS011;42597;40.636;0.278;2023-04-15T14:09:49;3.72;;;1.45;;
56718;SDS011;42597;40.636;0.278;2023-04-15T14:12:15;2.63;;;1.15;;
56718;SDS011;42597;40.636;0.278;2023-04-15T14:14:40;4.70;;;0.93;;
56718;SDS011;42597;40.636;0.278;2023-04-15T14:17:06;1.00;;;0.60;;
56718;SDS011;42597;40.636;0.278;2023-04-15T14:19:33;4.63;;;1.00;;
56718;SDS011;42597;40.636;0.278;2023-04-15T14:21:59;1.60;;;0.75;;
56718;SDS011;42597;40.636;0.278;2023-04-15T14:24:25;1.92;;;1.10;;
56718;SDS011;42597;40.636;0.278;2023-04-15T14:26:51;2.60;;;0.85;;
56718;SDS011;42597;40.636;0.278;2023-04-15T14:29:17;3.03;;;1.08;;
56718;SDS011;42597;40.636;0.278;2023-04-15T14:31:43;3.45;;;1.05;;
56718;SDS011;42597;40.636;0.278;2023-04-15T14:34:09;1.90;;;0.73;;
56718;SDS011;42597;40.636;0.278;2023-04-15T14:36:35;3.97;;;1.60;;
56718;SDS011;42597;40.636;0.278;2023-04-15T14:39:02;5.38;;;1.08;;
56718;SDS011;42597;40.636;0.278;2023-04-15T14:41:28;4.57;;;1.10;;
56718;SDS011;42597;40.636;0.278;2023-04-15T14:43:54;3.85;;;0.93;;
56718;SDS011;42597;40.636;0.278;2023-04-15T14:46:21;2.97;;;0.95;;
56718;SDS011;42597;40.636;0.278;2023-04-15T14:48:47;2.60;;;1.30;;
56718;SDS011;42597;40.636;0.278;2023-04-15T14:51:13;5.72;;;1.67;;
56718;SDS011;42597;40.636;0.278;2023-04-15T14:53:40;1.98;;;0.90;;
56718;SDS011;42597;40.636;0.278;2023-04-15T14:56:06;3.63;;;1.02;;
56718;SDS011;42597;40.636;0.278;2023-04-15T14:58:31;2.30;;;0.90;;
56718;SDS011;42597;40.636;0.278;2023-04-15T15:00:57;0.47;;;0.38;;
56718;SDS011;42597;40.636;0.278;2023-04-15T15:03:23;3.55;;;0.80;;
56718;SDS011;42597;40.636;0.278;2023-04-15T15:05:49;3.15;;;0.68;;
56718;SDS011;42597;40.636;0.278;2023-04-15T15:08:15;2.25;;;1.00;;
56718;SDS011;42597;40.636;0.278;2023-04-15T15:10:41;1.95;;;0.57;;
56718;SDS011;42597;40.636;0.278;2023-04-15T15:13:07;1.80;;;0.85;;
56718;SDS011;42597;40.636;0.278;2023-04-15T15:15:35;6.80;;;1.50;;
56718;SDS011;42597;40.636;0.278;2023-04-15T15:18:01;6.10;;;1.40;;
56718;SDS011;42597;40.636;0.278;2023-04-15T15:20:27;0.52;;;0.43;;
56718;SDS011;42597;40.636;0.278;2023-04-15T15:22:54;2.67;;;0.90;;